Impacts TAF Board
For situational awareness. Not to be used for flight planning purposes.
IDs:

KIAH - Houston/Bush Intl, TX, US

Issued at 1126 UTC 10 Aug 2022
Updated at 1422 UTC 10 Aug 2022
Potential Impact None Slight Moderate High
Time1353Z 10/15Z 10/16Z 10/17Z 10/18Z 10/19Z 10/20Z 10/21Z 10/22Z 10/23Z 11/00Z 11/01Z 11/02Z 11/03Z>>
Type OBS PRVL PRVL PRVL PRVL PRVL PRVL PRVL PRVL PRVL PRVL PRVL PRVL PRVL
VIS 10 >6 >6 >6 >6 >6 >6 >6 >6 >6 >6 >6 >6 >6
CIG -- 120 120 120 120 120 120 120 120 250 250 250 250 250
Cover FEW BKN BKN BKN BKN BKN BKN BKN BKN BKN BKN BKN BKN BKN
FltCat VFR VFR VFR VFR VFR VFR VFR VFR VFR VFR VFR VFR VFR VFR
WX -- -- -- -- -- -- VCTS VCTS VCTS -- -- -- -- --
WDir 270 230 230 230 230 230 110 110 110 130 130 130 130 130
WSpd 4 5 5 5 5 5 10 10 10 7 7 7 7 7
WGst -- -- -- -- -- -- -- -- -- -- -- -- -- --
WSHgt -- -- -- -- -- -- -- -- -- -- -- -- -- --
WSDir -- -- -- -- -- -- -- -- -- -- -- -- -- --
WSSpd -- -- -- -- -- -- -- -- -- -- -- -- -- --
Raw TAF
KIAH 101126Z 1012/1118 VRB04KT P6SM FEW035 SCT250
  FM101500 23005KT P6SM SCT030 BKN120
  FM102000 11010KT P6SM VCTS SCT045CB BKN120
  FM102300 13007KT P6SM SCT030 BKN250
  FM110600 VRB04KT P6SM SCT025 BKN250
  FM111700 VRB05KT P6SM VCSH FEW025


Raw METAR
KIAH 101353Z 27004KT 10SM FEW020 FEW120 29/24 A3009 RMK AO2 SLP188 T02940244
KIAH 101253Z 00000KT 10SM FEW015 FEW120 FEW250 28/25 A3008 RMK AO2 SLP185 T02780250
KIAH 101153Z 00000KT 10SM FEW150 SCT250 25/24 A3007 RMK AO2 SLP180 T02500239 10283 20244 53011

METAR Board
Radar Display
Forecast Discussion
For situational awareness. Not to be used for flight planning purposes.